Time;durP1;ratioP1;P1;durP2;ratioP2;P2;SDS_P1;SDS_P2;PMS_P1;PMS_P2;Temp;Humidity;BMP_temperature;BMP_pressure;BME280_temperature;BME280_humidity;BME280_pressure;Samples;Min_cycle;Max_cycle;Signal;HPM_P1;HPM_P2
2023/08/11 00:00:41;;;;;;;106.77;2.60;;;20.90;39.50;;;;;;5063157;28;20201;-80
2023/08/11 00:03:07;;;;;;;106.87;2.70;;;20.90;39.70;;;;;;5064365;28;20449;-81
2023/08/11 00:05:38;;;;;;;107.43;3.17;;;16.30;33.80;;;;;;5064513;28;20420;-80
2023/08/11 00:08:05;;;;;;;107.47;3.20;;;21.10;37.80;;;;;;5063841;28;20206;-79
2023/08/11 00:10:34;;;;;;;107.27;3.17;;;20.90;39.40;;;;;;5063439;28;20673;-80
2023/08/11 00:13:00;;;;;;;106.97;2.73;;;21.10;36.80;;;;;;5064409;28;20420;-80
2023/08/11 00:15:28;;;;;;;106.77;2.87;;;21.10;37.40;;;;;;5062856;28;20413;-82
2023/08/11 00:17:57;;;;;;;107.17;3.13;;;21.20;38.20;;;;;;5064664;28;20413;-80
2023/08/11 00:20:23;;;;;;;106.30;2.40;;;21.10;38.60;;;;;;5064082;28;20927;-81
2023/08/11 00:22:49;;;;;;;107.03;2.80;;;21.10;37.80;;;;;;5063523;28;20410;-80
2023/08/11 00:25:15;;;;;;;106.97;2.80;;;21.10;38.30;;;;;;5064232;28;20436;-80
2023/08/11 00:27:40;;;;;;;106.70;2.60;;;21.10;39.40;;;;;;5064364;28;20246;-81
2023/08/11 00:30:06;;;;;;;107.13;2.90;;;20.80;37.80;;;;;;5063929;28;20182;-80
2023/08/11 00:32:32;;;;;;;107.60;3.30;;;20.70;38.40;;;;;;5064220;28;20204;-81
2023/08/11 00:34:58;;;;;;;106.90;2.93;;;20.80;39.30;;;;;;5064321;28;20441;-80
2023/08/11 00:37:23;;;;;;;107.27;3.20;;;21.10;37.50;;;;;;5067613;28;20190;-80
2023/08/11 00:39:51;;;;;;;107.20;2.90;;;21.10;38.50;;;;;;5064409;28;20182;-80
2023/08/11 00:42:17;;;;;;;107.67;3.30;;;21.00;37.70;;;;;;5058892;28;20254;-80
2023/08/11 00:44:43;;;;;;;107.43;3.27;;;20.90;39.30;;;;;;5058198;28;20432;-80
2023/08/11 00:47:08;;;;;;;107.27;3.07;;;20.80;38.10;;;;;;5057890;28;20813;-81
2023/08/11 00:49:34;;;;;;;107.23;2.83;;;20.80;38.60;;;;;;5058886;28;20177;-80
2023/08/11 00:52:00;;;;;;;107.37;2.97;;;20.90;40.00;;;;;;5040575;28;20227;-80
2023/08/11 00:54:27;;;;;;;107.20;2.87;;;20.60;39.60;;;;;;5058041;28;20194;-80
2023/08/11 00:56:54;;;;;;;107.30;3.00;;;21.00;39.80;;;;;;5056953;28;20413;-81
2023/08/11 00:59:21;;;;;;;107.40;2.93;;;20.50;39.80;;;;;;5054655;28;20784;-80
2023/08/11 01:01:46;;;;;;;107.10;2.70;;;20.40;39.90;;;;;;5055015;28;20416;-81
2023/08/11 01:04:12;;;;;;;107.40;2.90;;;20.40;40.80;;;;;;5054734;28;20594;-81
2023/08/11 01:06:56;;;;;;;107.53;3.10;;;20.30;40.60;;;;;;5054900;28;20192;-80
2023/08/11 01:09:44;;;;;;;108.20;3.20;;;20.50;40.30;;;;;;5054944;28;20165;-80
2023/08/11 01:12:18;;;;;;;107.53;3.00;;;20.40;40.40;;;;;;5054900;28;20738;-80
2023/08/11 01:14:53;;;;;;;107.90;3.60;;;20.20;40.00;;;;;;5036432;28;20436;-81
2023/08/11 01:17:19;;;;;;;107.60;3.13;;;20.20;40.40;;;;;;5054890;28;20403;-80
2023/08/11 01:19:46;;;;;;;108.30;3.53;;;20.10;41.20;;;;;;5054729;28;20493;-80
2023/08/11 01:22:18;;;;;;;107.67;3.10;;;20.20;40.80;;;;;;5054448;28;20420;-81
2023/08/11 01:24:45;;;;;;;108.43;3.37;;;20.20;41.80;;;;;;5056553;28;20432;-79
2023/08/11 01:27:11;;;;;;;107.70;3.20;;;20.30;42.00;;;;;;5057737;28;21028;-80
2023/08/11 01:29:38;;;;;;;108.27;3.30;;;20.20;40.70;;;;;;5057463;28;20504;-80
2023/08/11 01:32:04;;;;;;;108.07;3.37;;;20.10;41.70;;;;;;5057057;28;20951;-80
2023/08/11 01:34:30;;;;;;;107.90;2.97;;;20.10;41.20;;;;;;5057041;28;20446;-80
2023/08/11 01:37:00;;;;;;;107.87;3.00;;;20.10;41.70;;;;;;5057059;28;20425;-80
2023/08/11 01:39:30;;;;;;;109.70;3.40;;;20.30;41.10;;;;;;5057650;28;20169;-80
2023/08/11 01:41:55;;;;;;;107.97;3.10;;;19.90;41.00;;;;;;5057326;28;20406;-80
2023/08/11 01:44:22;;;;;;;107.87;3.17;;;20.00;42.40;;;;;;5056804;28;20446;-79
2023/08/11 01:46:50;;;;;;;107.60;2.80;;;20.30;41.90;;;;;;5056474;28;20202;-80
2023/08/11 01:49:17;;;;;;;107.83;2.87;;;19.80;41.50;;;;;;5057289;28;20925;-81
2023/08/11 01:51:43;;;;;;;108.47;3.50;;;20.40;42.00;;;;;;5056782;28;20438;-79
2023/08/11 01:54:09;;;;;;;108.07;2.90;;;19.80;41.50;;;;;;5057245;28;20792;-79
2023/08/11 01:56:36;;;;;;;108.57;3.40;;;20.00;41.60;;;;;;5056939;28;20408;-79
2023/08/11 01:59:11;;;;;;;108.23;3.47;;;19.60;42.60;;;;;;5056869;28;20416;-81
2023/08/11 02:01:38;;;;;;;107.50;2.77;;;19.70;43.30;;;;;;5056732;28;20412;-80
2023/08/11 02:04:04;;;;;;;108.07;3.10;;;19.60;43.00;;;;;;5056701;28;20458;-80
2023/08/11 02:06:30;;;;;;;108.70;3.37;;;19.60;42.70;;;;;;5056501;28;20451;-81
2023/08/11 02:08:56;;;;;;;107.80;3.13;;;20.00;42.10;;;;;;5056745;28;20495;-81
2023/08/11 02:11:22;;;;;;;108.30;2.90;;;20.20;40.70;;;;;;5056730;28;20427;-80
2023/08/11 02:13:48;;;;;;;107.90;3.03;;;20.20;41.10;;;;;;5056290;28;20432;-80
2023/08/11 02:16:14;;;;;;;107.87;3.03;;;20.00;41.70;;;;;;5056111;28;20182;-79
2023/08/11 02:18:40;;;;;;;110.20;3.20;;;20.10;41.80;;;;;;5056317;28;20236;-79
2023/08/11 02:21:07;;;;;;;107.37;2.67;;;20.10;42.00;;;;;;5056312;28;20199;-80
2023/08/11 02:23:33;;;;;;;108.07;2.70;;;20.10;41.70;;;;;;5056575;28;20428;-80
2023/08/11 02:25:59;;;;;;;108.07;3.10;;;20.00;41.70;;;;;;5055478;28;20432;-79
2023/08/11 02:28:25;;;;;;;107.80;3.10;;;20.20;41.30;;;;;;5056662;28;20899;-79
2023/08/11 02:30:50;;;;;;;108.67;3.10;;;20.00;41.60;;;;;;5056434;28;20412;-79
2023/08/11 02:33:18;;;;;;;108.47;3.40;;;20.00;41.70;;;;;;5055899;28;20933;-80
2023/08/11 02:35:44;;;;;;;107.97;2.93;;;19.80;41.70;;;;;;5056255;28;20531;-80
2023/08/11 02:38:10;;;;;;;108.30;3.13;;;19.80;41.50;;;;;;5056320;28;20929;-79
2023/08/11 02:40:35;;;;;;;108.20;3.20;;;19.70;42.10;;;;;;5055886;28;20481;-81
2023/08/11 02:43:02;;;;;;;108.47;3.00;;;19.60;41.80;;;;;;5055985;28;20174;-79
2023/08/11 02:45:27;;;;;;;107.77;2.93;;;19.60;42.50;;;;;;5055601;28;20172;-80
2023/08/11 02:47:53;;;;;;;108.17;3.00;;;19.70;42.20;;;;;;5056096;28;20526;-79
2023/08/11 02:50:19;;;;;;;108.40;3.27;;;19.80;42.70;;;;;;5055654;28;20205;-79
2023/08/11 02:52:44;;;;;;;107.90;2.80;;;19.30;43.20;;;;;;5055841;28;20221;-80
2023/08/11 02:55:11;;;;;;;107.87;2.73;;;19.30;43.80;;;;;;5066631;28;20233;-81
2023/08/11 02:57:37;;;;;;;108.30;3.10;;;19.40;44.10;;;;;;5073223;28;20173;-83
2023/08/11 03:00:13;;;;;;;108.10;3.07;;;19.90;43.70;;;;;;5076638;28;20421;-84
2023/08/11 03:02:42;;;;;;;108.10;2.70;;;19.70;43.00;;;;;;5078029;28;20168;-83
2023/08/11 03:05:09;;;;;;;108.97;3.30;;;19.60;42.50;;;;;;5077333;28;20508;-83
2023/08/11 03:07:36;;;;;;;108.77;3.47;;;19.50;42.30;;;;;;5077878;28;20450;-83
2023/08/11 03:10:02;;;;;;;108.17;3.00;;;19.40;43.60;;;;;;5077821;28;20423;-83
2023/08/11 03:12:30;;;;;;;108.17;2.90;;;19.40;43.90;;;;;;5077884;28;20404;-84
2023/08/11 03:14:56;;;;;;;108.03;3.10;;;19.30;44.50;;;;;;5076763;28;20532;-82
2023/08/11 03:17:23;;;;;;;108.43;3.27;;;19.50;44.00;;;;;;5064114;28;20433;-81
2023/08/11 03:19:48;;;;;;;108.33;3.07;;;19.30;43.80;;;;;;5061701;28;20443;-82
2023/08/11 03:22:17;;;;;;;108.13;2.90;;;19.70;44.20;;;;;;5062052;28;20434;-81
2023/08/11 03:24:46;;;;;;;108.37;3.13;;;19.70;44.00;;;;;;5063270;28;20180;-79
2023/08/11 03:27:18;;;;;;;108.27;3.00;;;19.30;43.90;;;;;;5063896;28;20533;-80
2023/08/11 03:29:44;;;;;;;108.10;3.00;;;19.50;44.20;;;;;;5056745;28;20407;-79
2023/08/11 03:32:09;;;;;;;108.87;3.53;;;19.30;43.50;;;;;;5059888;28;20414;-80
2023/08/11 03:34:35;;;;;;;108.70;3.33;;;19.60;42.70;;;;;;5055771;28;20594;-80
2023/08/11 03:37:01;;;;;;;109.33;3.37;;;19.70;42.90;;;;;;5055026;28;20173;-81
2023/08/11 03:39:27;;;;;;;108.30;3.00;;;19.60;43.20;;;;;;5055040;28;20471;-79
2023/08/11 03:41:52;;;;;;;108.37;2.70;;;19.20;42.80;;;;;;5054986;28;20183;-79
2023/08/11 03:44:18;;;;;;;108.90;3.40;;;19.20;43.90;;;;;;5054705;28;20192;-79
2023/08/11 03:46:44;;;;;;;109.00;3.20;;;19.20;43.90;;;;;;5055229;28;20207;-79
2023/08/11 03:49:10;;;;;;;108.10;2.80;;;19.30;43.30;;;;;;5055654;28;20201;-79
2023/08/11 03:51:35;;;;;;;108.17;3.00;;;19.30;44.00;;;;;;5055681;28;20894;-80
2023/08/11 03:54:02;;;;;;;108.30;2.90;;;19.20;44.10;;;;;;5055481;28;20251;-80
2023/08/11 03:56:28;;;;;;;110.30;3.30;;;19.30;44.00;;;;;;5055426;28;20175;-80
2023/08/11 03:58:54;;;;;;;108.17;2.70;;;19.50;44.50;;;;;;5055117;28;20417;-80
2023/08/11 04:01:19;;;;;;;108.50;3.03;;;19.20;44.10;;;;;;5055395;28;20411;-80
2023/08/11 04:03:45;;;;;;;108.60;3.23;;;19.40;44.40;;;;;;5055347;28;20212;-80
2023/08/11 04:06:11;;;;;;;108.37;2.90;;;19.40;44.00;;;;;;5054721;28;20253;-80
2023/08/11 04:08:36;;;;;;;108.93;3.43;;;19.10;44.20;;;;;;5055245;28;20201;-80
2023/08/11 04:11:02;;;;;;;108.50;3.07;;;19.10;44.30;;;;;;5059395;28;20650;-80
2023/08/11 04:13:28;;;;;;;109.20;3.37;;;19.60;42.80;;;;;;5059356;28;20202;-80
2023/08/11 04:15:53;;;;;;;108.90;3.27;;;19.30;43.30;;;;;;5058948;28;20165;-80
2023/08/11 04:18:19;;;;;;;108.70;3.03;;;19.20;43.90;;;;;;5063076;28;20413;-80
2023/08/11 04:20:46;;;;;;;108.50;3.13;;;19.30;43.80;;;;;;5059119;28;20172;-79
2023/08/11 04:23:12;;;;;;;108.37;2.90;;;19.30;44.50;;;;;;5059226;28;20200;-80
2023/08/11 04:25:37;;;;;;;108.63;2.87;;;18.90;44.30;;;;;;5058752;28;20404;-81
2023/08/11 04:28:03;;;;;;;109.30;3.50;;;19.30;45.00;;;;;;5059084;28;20204;-79
2023/08/11 04:30:29;;;;;;;108.33;2.70;;;18.90;44.40;;;;;;5059206;28;20177;-80
2023/08/11 04:32:55;;;;;;;109.37;3.30;;;18.90;45.80;;;;;;5058672;28;20184;-79
2023/08/11 04:35:20;;;;;;;109.80;3.33;;;18.90;44.50;;;;;;5058670;28;20409;-80
2023/08/11 04:37:46;;;;;;;109.37;3.30;;;18.80;45.20;;;;;;5041063;28;20603;-79
2023/08/11 04:40:13;;;;;;;108.63;3.03;;;19.10;45.60;;;;;;5058252;28;20179;-80
2023/08/11 04:42:40;;;;;;;109.10;3.17;;;18.80;45.40;;;;;;5058821;28;20175;-80
2023/08/11 04:45:06;;;;;;;109.00;3.23;;;19.10;44.50;;;;;;5058217;28;20929;-80
2023/08/11 04:47:32;;;;;;;109.10;3.30;;;18.90;45.40;;;;;;5058250;28;20462;-80
2023/08/11 04:49:58;;;;;;;108.90;3.27;;;19.30;45.30;;;;;;5058134;28;20411;-80
2023/08/11 04:52:23;;;;;;;109.43;3.67;;;19.40;44.30;;;;;;5058742;28;20256;-79
2023/08/11 04:54:49;;;;;;;110.13;3.53;;;19.40;44.30;;;;;;5058433;28;20192;-79
2023/08/11 04:57:14;;;;;;;108.70;3.13;;;19.30;45.20;;;;;;5058496;28;20233;-80
2023/08/11 04:59:40;;;;;;;109.87;3.50;;;19.30;44.40;;;;;;5058620;28;20241;-81
2023/08/11 05:02:07;;;;;;;109.00;3.47;;;19.30;44.10;;;;;;5058748;28;20248;-81
2023/08/11 05:04:33;;;;;;;108.20;2.77;;;19.30;43.70;;;;;;5058180;28;20567;-81
2023/08/11 05:06:59;;;;;;;109.20;3.07;;;19.60;43.90;;;;;;5058170;28;20467;-80
2023/08/11 05:09:24;;;;;;;108.50;2.87;;;19.00;45.60;;;;;;5060300;28;20470;-81
2023/08/11 05:11:50;;;;;;;108.67;2.90;;;18.60;46.30;;;;;;5058507;28;20420;-80
2023/08/11 05:14:17;;;;;;;108.70;3.00;;;18.70;46.00;;;;;;5058097;28;20201;-79
2023/08/11 05:16:44;;;;;;;160.90;3.97;;;18.80;46.50;;;;;;5057696;28;20195;-80
2023/08/11 05:19:09;;;;;;;108.67;3.00;;;19.20;45.90;;;;;;5058225;28;20894;-80
2023/08/11 05:21:36;;;;;;;108.70;3.03;;;19.70;44.70;;;;;;5057320;28;20513;-80
2023/08/11 05:24:02;;;;;;;108.50;2.93;;;19.70;43.10;;;;;;5057667;28;20197;-80
2023/08/11 05:26:28;;;;;;;108.93;3.30;;;19.70;42.50;;;;;;5057958;28;20458;-79
2023/08/11 05:28:53;;;;;;;108.47;3.00;;;20.00;42.60;;;;;;5056471;28;20408;-81
2023/08/11 05:31:19;;;;;;;108.83;3.37;;;19.60;42.30;;;;;;5054368;28;20587;-82
2023/08/11 05:33:44;;;;;;;108.57;3.03;;;19.40;43.80;;;;;;5054359;28;20291;-80
2023/08/11 05:36:10;;;;;;;108.83;3.40;;;18.40;46.10;;;;;;5054363;28;20172;-80
2023/08/11 05:38:35;;;;;;;108.57;3.17;;;18.00;49.20;;;;;;5054088;28;20174;-81
2023/08/11 05:41:01;;;;;;;109.47;3.70;;;18.10;48.70;;;;;;5054048;28;20649;-80
2023/08/11 05:43:26;;;;;;;108.67;3.10;;;18.60;48.60;;;;;;5036104;28;20199;-81
2023/08/11 05:45:52;;;;;;;110.17;3.73;;;18.70;46.00;;;;;;5053775;28;20169;-80
2023/08/11 05:48:18;;;;;;;108.90;3.17;;;18.60;47.50;;;;;;5053920;28;20552;-80
2023/08/11 05:50:45;;;;;;;108.70;2.90;;;18.60;47.60;;;;;;5054258;28;20588;-80
2023/08/11 05:53:10;;;;;;;108.37;2.90;;;19.00;46.40;;;;;;5054041;28;20212;-81
2023/08/11 05:55:36;;;;;;;108.10;3.00;;;19.20;45.90;;;;;;5053530;28;20542;-80
2023/08/11 05:58:02;;;;;;;108.63;3.30;;;19.10;45.10;;;;;;5053926;28;20187;-84
2023/08/11 06:00:27;;;;;;;108.63;3.53;;;19.60;44.80;;;;;;5054556;28;20217;-81
2023/08/11 06:02:53;;;;;;;108.10;2.80;;;20.00;43.50;;;;;;5063632;28;20181;-80
2023/08/11 06:05:21;;;;;;;108.17;3.07;;;20.60;41.20;;;;;;5057913;28;20194;-80
2023/08/11 06:07:50;;;;;;;108.17;2.93;;;20.70;41.50;;;;;;5057687;28;20332;-80
2023/08/11 06:10:15;;;;;;;108.40;3.10;;;20.70;42.30;;;;;;5057043;28;20417;-80
2023/08/11 06:12:41;;;;;;;108.70;3.23;;;20.80;42.10;;;;;;5057438;28;20414;-79
2023/08/11 06:15:08;;;;;;;108.77;3.37;;;20.80;41.00;;;;;;5056656;28;20198;-80
2023/08/11 06:17:35;;;;;;;108.27;3.00;;;20.20;41.00;;;;;;5038861;28;20243;-81
2023/08/11 06:20:01;;;;;;;108.87;3.07;;;20.20;43.10;;;;;;5056976;28;20525;-80
2023/08/11 06:22:27;;;;;;;108.27;3.23;;;20.20;41.80;;;;;;5057293;28;20464;-79
2023/08/11 06:24:53;;;;;;;108.57;3.60;;;20.30;42.20;;;;;;5056386;28;20198;-80
2023/08/11 06:27:19;;;;;;;108.17;3.20;;;20.70;40.60;;;;;;5057933;28;20453;-80
2023/08/11 06:29:45;;;;;;;107.97;3.00;;;21.30;38.70;;;;;;5056966;28;20407;-80
2023/08/11 06:32:11;;;;;;;110.87;3.10;;;21.70;38.80;;;;;;5038537;28;20193;-80
2023/08/11 06:34:36;;;;;;;108.27;3.37;;;21.50;38.90;;;;;;5055947;28;20242;-80
2023/08/11 06:37:02;;;;;;;108.13;3.03;;;21.50;38.80;;;;;;5057351;28;20214;-80
2023/08/11 06:39:28;;;;;;;111.00;3.50;;;21.70;37.50;;;;;;5056771;28;20226;-80
2023/08/11 06:41:54;;;;;;;108.40;2.80;;;21.70;38.00;;;;;;5056675;28;20411;-79
2023/08/11 06:44:19;;;;;;;108.27;3.47;;;21.40;38.90;;;;;;5056601;28;20286;-80
2023/08/11 06:46:45;;;;;;;108.03;3.17;;;20.90;39.80;;;;;;5058257;28;20556;-81
2023/08/11 06:49:11;;;;;;;107.80;3.13;;;20.40;41.20;;;;;;5055866;28;20172;-81
2023/08/11 06:51:36;;;;;;;107.80;3.30;;;20.50;41.80;;;;;;5056139;28;20911;-80
2023/08/11 06:54:02;;;;;;;107.10;2.70;;;20.90;41.60;;;;;;5055981;28;20193;-80
2023/08/11 06:56:28;;;;;;;119.00;3.37;;;21.50;42.10;;;;;;5056219;28;20283;-81
2023/08/11 06:58:53;;;;;;;108.00;3.33;;;22.20;40.10;;;;;;5056550;28;20192;-80
2023/08/11 07:01:19;;;;;;;108.43;3.60;;;22.00;39.60;;;;;;5056969;28;20250;-81
2023/08/11 07:03:45;;;;;;;107.57;3.03;;;22.30;39.20;;;;;;5056464;28;20294;-80
2023/08/11 07:06:11;;;;;;;108.57;3.10;;;22.30;37.90;;;;;;5056240;28;20179;-79
2023/08/11 07:08:36;;;;;;;107.80;3.00;;;22.30;37.00;;;;;;5056265;28;20173;-80
2023/08/11 07:11:02;;;;;;;107.87;3.27;;;21.90;38.00;;;;;;5055803;28;20438;-80
2023/08/11 07:13:27;;;;;;;108.10;3.57;;;21.60;38.40;;;;;;5055096;28;20187;-81
2023/08/11 07:15:57;;;;;;;107.10;3.07;;;21.50;38.90;;;;;;5055638;28;20174;-80
2023/08/11 07:18:23;;;;;;;107.10;3.10;;;21.60;39.70;;;;;;5055578;28;20189;-80
2023/08/11 07:20:49;;;;;;;108.33;3.70;;;21.60;40.00;;;;;;5055678;28;20423;-80
2023/08/11 07:23:16;;;;;;;107.40;3.20;;;21.60;39.80;;;;;;5055491;28;20515;-80
2023/08/11 07:25:42;;;;;;;107.50;3.30;;;21.80;40.50;;;;;;5055042;28;20198;-79
2023/08/11 07:28:09;;;;;;;107.57;3.40;;;22.00;39.50;;;;;;5055551;28;20839;-80
2023/08/11 07:30:36;;;;;;;107.37;3.17;;;21.80;39.40;;;;;;5055169;28;20436;-80
2023/08/11 07:33:02;;;;;;;108.30;3.33;;;21.90;39.60;;;;;;5055868;28;20413;-80
2023/08/11 07:35:29;;;;;;;107.13;3.27;;;21.70;40.00;;;;;;5055990;28;20417;-81
2023/08/11 07:37:54;;;;;;;107.20;3.10;;;21.90;38.50;;;;;;5059966;28;20414;-80
2023/08/11 07:40:20;;;;;;;107.27;3.57;;;22.20;38.40;;;;;;5056999;28;20417;-82
2023/08/11 07:42:46;;;;;;;107.30;3.40;;;22.20;38.30;;;;;;5055743;28;20651;-80
2023/08/11 07:45:11;;;;;;;107.87;3.13;;;22.60;37.10;;;;;;5055316;28;20254;-80
2023/08/11 07:47:37;;;;;;;107.50;3.70;;;22.70;37.20;;;;;;5055939;28;20214;-80
2023/08/11 07:50:03;;;;;;;107.10;3.37;;;22.70;37.10;;;;;;5056367;28;20670;-80
2023/08/11 07:52:28;;;;;;;107.33;3.37;;;23.00;36.00;;;;;;5056282;28;20202;-80
2023/08/11 07:54:54;;;;;;;107.40;3.03;;;23.40;37.40;;;;;;5055706;28;20188;-80
2023/08/11 07:57:19;;;;;;;107.17;3.43;;;27.00;38.30;;;;;;5055806;28;20533;-80
2023/08/11 07:59:45;;;;;;;106.60;2.90;;;23.80;36.40;;;;;;5056387;28;20177;-80
2023/08/11 08:02:12;;;;;;;107.03;3.43;;;23.20;36.70;;;;;;5056143;28;20260;-80
2023/08/11 08:04:38;;;;;;;106.67;3.30;;;23.60;36.60;;;;;;5055923;28;20619;-80
2023/08/11 08:07:04;;;;;;;106.27;3.23;;;23.40;35.80;;;;;;5056168;28;20521;-79
2023/08/11 08:09:33;;;;;;;106.57;3.10;;;23.60;37.90;;;;;;5056340;28;20362;-80
2023/08/11 08:12:00;;;;;;;108.53;3.60;;;23.50;35.80;;;;;;5055302;28;20163;-80
2023/08/11 08:14:25;;;;;;;106.70;3.40;;;23.20;36.20;;;;;;5037623;28;20433;-83
2023/08/11 08:16:51;;;;;;;106.80;3.63;;;23.60;36.10;;;;;;5055735;28;20410;-80
2023/08/11 08:19:18;;;;;;;107.33;3.43;;;23.20;37.30;;;;;;5055593;28;20179;-80
2023/08/11 08:21:46;;;;;;;106.30;3.50;;;23.70;36.40;;;;;;5057915;28;20171;-79
2023/08/11 08:24:14;;;;;;;106.40;3.20;;;23.40;36.00;;;;;;5054010;28;20960;-81
2023/08/11 08:26:40;;;;;;;106.23;3.57;;;23.80;36.30;;;;;;5051828;28;20465;-81
2023/08/11 08:29:05;;;;;;;106.97;3.80;;;24.10;35.10;;;;;;5053849;28;20413;-80
2023/08/11 08:31:31;;;;;;;106.80;3.60;;;24.00;35.30;;;;;;5055380;28;20416;-80
2023/08/11 08:33:57;;;;;;;104.90;2.70;;;24.30;35.10;;;;;;5056007;28;20241;-80
2023/08/11 08:36:22;;;;;;;105.70;3.00;;;24.10;34.50;;;;;;5055394;28;20257;-80
2023/08/11 08:38:48;;;;;;;106.53;3.43;;;24.00;34.60;;;;;;5056092;28;20186;-80
2023/08/11 08:41:18;;;;;;;106.50;3.27;;;24.50;36.20;;;;;;5056543;28;20217;-80
2023/08/11 08:43:43;;;;;;;106.00;3.43;;;24.90;33.80;;;;;;5056136;28;20701;-81
2023/08/11 08:46:13;;;;;;;105.60;3.30;;;25.10;32.90;;;;;;5055301;28;20414;-80
2023/08/11 08:49:01;;;;;;;105.90;3.20;;;25.00;34.00;;;;;;5056438;28;20174;-80
2023/08/11 08:51:29;;;;;;;105.83;3.30;;;25.10;33.00;;;;;;5045369;28;20446;-80
2023/08/11 08:53:54;;;;;;;105.37;3.20;;;24.60;33.90;;;;;;5055264;28;20429;-80
2023/08/11 08:56:20;;;;;;;106.00;3.27;;;24.90;34.20;;;;;;5056528;28;20409;-80
2023/08/11 08:58:46;;;;;;;107.80;3.10;;;24.90;34.00;;;;;;5059352;28;20544;-82
2023/08/11 09:01:13;;;;;;;106.10;3.17;;;25.20;34.00;;;;;;5059769;28;20198;-81
2023/08/11 09:03:39;;;;;;;107.20;3.50;;;25.10;34.30;;;;;;5059493;28;20468;-80
2023/08/11 09:06:05;;;;;;;105.27;2.97;;;25.60;34.10;;;;;;5060541;28;20405;-80
2023/08/11 09:08:32;;;;;;;105.57;3.20;;;25.90;33.60;;;;;;5059347;28;20422;-80
2023/08/11 09:10:57;;;;;;;105.07;3.03;;;26.10;33.00;;;;;;5059563;28;20419;-80
2023/08/11 09:13:25;;;;;;;117.50;3.20;;;26.00;31.70;;;;;;5059251;28;20834;-80
2023/08/11 09:15:50;;;;;;;105.97;3.63;;;25.70;32.20;;;;;;5059335;28;20178;-80
2023/08/11 09:18:16;;;;;;;105.57;3.53;;;25.70;31.30;;;;;;5058598;28;20454;-81
2023/08/11 09:20:46;;;;;;;105.07;3.03;;;25.90;32.80;;;;;;5059842;28;20550;-80
2023/08/11 09:23:12;;;;;;;104.70;3.13;;;26.10;32.50;;;;;;5057817;28;20204;-81
2023/08/11 09:25:37;;;;;;;104.57;2.60;;;26.50;31.80;;;;;;5058150;28;20418;-80
2023/08/11 09:28:03;;;;;;;104.20;2.70;;;26.40;31.10;;;;;;5057449;28;20214;-81
2023/08/11 09:30:32;;;;;;;105.03;3.40;;;26.10;30.60;;;;;;5057604;28;20251;-81
2023/08/11 09:33:01;;;;;;;104.87;3.40;;;26.20;31.10;;;;;;5058589;28;20414;-80
2023/08/11 09:35:27;;;;;;;104.93;3.03;;;26.50;30.30;;;;;;5059094;28;20949;-80
2023/08/11 09:37:54;;;;;;;104.80;3.13;;;26.30;30.30;;;;;;5059654;28;20746;-81
2023/08/11 09:40:21;;;;;;;104.17;2.90;;;26.60;30.40;;;;;;5059396;28;20453;-80
2023/08/11 09:42:46;;;;;;;104.40;3.07;;;27.00;30.70;;;;;;5059920;28;20960;-80
2023/08/11 09:45:12;;;;;;;104.47;3.03;;;27.40;31.50;;;;;;5059190;28;20421;-81
2023/08/11 09:47:38;;;;;;;104.47;3.20;;;27.60;30.20;;;;;;5058980;28;20195;-81
2023/08/11 09:50:03;;;;;;;104.57;3.13;;;27.80;29.50;;;;;;5059936;28;20530;-81
2023/08/11 09:52:33;;;;;;;103.63;2.60;;;28.00;30.70;;;;;;5060143;28;20226;-82
2023/08/11 09:54:59;;;;;;;103.93;2.90;;;28.20;29.00;;;;;;5059086;28;20701;-80
2023/08/11 09:57:26;;;;;;;105.37;3.20;;;28.40;28.50;;;;;;5059759;28;20414;-80
2023/08/11 09:59:53;;;;;;;104.83;2.83;;;28.20;26.90;;;;;;5059176;28;20452;-80
2023/08/11 10:02:22;;;;;;;104.00;2.70;;;27.80;27.90;;;;;;5059039;28;20410;-80
2023/08/11 10:04:56;;;;;;;104.00;3.00;;;27.70;27.00;;;;;;5058807;28;20453;-80
2023/08/11 10:07:29;;;;;;;104.80;3.10;;;27.40;27.80;;;;;;5058386;28;20538;-80
2023/08/11 10:09:55;;;;;;;104.97;3.03;;;27.30;27.90;;;;;;5059077;28;20891;-80
2023/08/11 10:12:22;;;;;;;104.80;3.73;;;28.10;27.20;;;;;;5059744;28;20406;-81
2023/08/11 10:14:48;;;;;;;105.03;3.20;;;28.50;26.90;;;;;;5059110;28;20437;-81
2023/08/11 10:17:14;;;;;;;106.93;3.23;;;28.90;27.50;;;;;;5059827;28;20505;-82
2023/08/11 10:19:40;;;;;;;104.00;3.10;;;28.80;26.50;;;;;;5058575;28;20471;-82
2023/08/11 10:22:06;;;;;;;103.30;2.80;;;28.30;24.60;;;;;;5058489;28;20182;-82
2023/08/11 10:24:36;;;;;;;103.50;3.07;;;27.70;25.80;;;;;;5058614;28;20434;-80
2023/08/11 10:27:02;;;;;;;107.00;2.80;;;27.70;25.80;;;;;;5058589;28;20701;-81
2023/08/11 10:29:28;;;;;;;103.20;2.80;;;28.40;26.60;;;;;;5060347;28;20414;-81
2023/08/11 10:31:55;;;;;;;103.13;2.63;;;29.30;25.30;;;;;;5059325;28;20255;-81
2023/08/11 10:34:23;;;;;;;103.40;2.80;;;29.40;25.30;;;;;;5059775;28;20430;-81
2023/08/11 10:36:49;;;;;;;103.10;2.60;;;29.30;24.70;;;;;;5059107;28;20501;-81
2023/08/11 10:39:17;;;;;;;102.60;2.60;;;29.00;24.10;;;;;;5058782;28;20449;-81
2023/08/11 10:41:47;;;;;;;102.60;2.53;;;28.90;24.50;;;;;;5058773;28;20929;-80
2023/08/11 10:44:17;;;;;;;102.70;2.80;;;29.00;25.00;;;;;;5058838;28;20422;-82
2023/08/11 10:46:44;;;;;;;102.60;2.73;;;29.50;24.20;;;;;;5058856;28;20816;-82
2023/08/11 10:49:10;;;;;;;102.73;3.00;;;30.00;22.70;;;;;;5058655;28;20410;-80
2023/08/11 10:51:37;;;;;;;102.60;2.67;;;30.30;23.80;;;;;;5059358;28;20413;-81
2023/08/11 10:54:06;;;;;;;102.47;2.90;;;30.10;22.00;;;;;;5059202;28;20184;-81
2023/08/11 10:56:34;;;;;;;102.37;2.50;;;30.00;24.00;;;;;;5059624;28;20944;-81
2023/08/11 10:59:14;;;;;;;102.60;2.80;;;30.50;23.40;;;;;;5058753;28;20530;-82
2023/08/11 11:01:43;;;;;;;101.77;2.30;;;30.10;22.20;;;;;;5058732;28;20952;-81
2023/08/11 11:04:09;;;;;;;101.80;2.43;;;29.40;24.40;;;;;;5058786;28;21022;-80
2023/08/11 11:06:35;;;;;;;101.87;2.60;;;29.80;22.80;;;;;;5058709;28;20449;-82
2023/08/11 11:09:03;;;;;;;102.67;3.00;;;30.20;23.00;;;;;;5059186;28;20402;-82
2023/08/11 11:11:30;;;;;;;101.47;2.40;;;30.60;24.50;;;;;;5041601;28;20406;-80
2023/08/11 11:13:56;;;;;;;101.10;2.20;;;30.90;21.60;;;;;;5058847;28;20784;-81
2023/08/11 11:16:22;;;;;;;101.13;2.40;;;30.80;20.90;;;;;;5057909;28;20921;-81
2023/08/11 11:18:48;;;;;;;101.20;2.30;;;29.90;22.20;;;;;;5058411;28;20414;-81
2023/08/11 11:21:14;;;;;;;103.10;2.47;;;29.30;22.20;;;;;;5059176;28;20168;-81
2023/08/11 11:23:47;;;;;;;101.10;2.40;;;30.00;24.00;;;;;;5059821;28;20213;-81
2023/08/11 11:26:27;;;;;;;101.17;2.60;;;30.70;20.30;;;;;;5058261;28;20406;-80
2023/08/11 11:28:54;;;;;;;100.87;2.60;;;29.70;22.40;;;;;;5059815;28;20414;-80
2023/08/11 11:31:22;;;;;;;100.87;2.30;;;30.50;21.40;;;;;;5059285;28;20402;-81
2023/08/11 11:33:49;;;;;;;101.20;2.40;;;30.70;20.50;;;;;;5059006;28;20818;-82
2023/08/11 11:36:17;;;;;;;101.20;2.43;;;31.70;24.30;;;;;;5060051;28;20429;-81
2023/08/11 11:38:43;;;;;;;100.57;2.20;;;32.50;21.00;;;;;;5058278;28;20402;-79
2023/08/11 11:41:13;;;;;;;100.47;2.27;;;33.60;19.50;;;;;;5052233;28;20413;-79
2023/08/11 11:43:39;;;;;;;100.30;2.20;;;32.10;19.20;;;;;;5051948;28;20464;-79
2023/08/11 11:46:14;;;;;;;99.87;2.07;;;32.40;19.30;;;;;;5051413;28;20795;-79
2023/08/11 11:48:51;;;;;;;99.40;2.00;;;32.30;18.90;;;;;;5052372;28;20417;-79
2023/08/11 11:51:19;;;;;;;99.43;2.00;;;33.60;20.30;;;;;;5052448;28;20405;-79
2023/08/11 11:53:44;;;;;;;99.20;2.00;;;34.10;18.40;;;;;;5052349;28;20839;-79
2023/08/11 11:56:14;;;;;;;99.13;2.00;;;34.00;19.00;;;;;;5052342;28;20402;-80
2023/08/11 11:58:40;;;;;;;98.63;1.93;;;33.90;15.60;;;;;;5052714;28;20172;-79
2023/08/11 12:01:10;;;;;;;98.13;2.00;;;33.00;18.30;;;;;;5052306;28;20407;-79
2023/08/11 12:03:36;;;;;;;97.80;2.03;;;33.70;16.70;;;;;;5052610;28;20449;-79
2023/08/11 12:06:04;;;;;;;97.77;2.00;;;34.90;17.80;;;;;;5052909;28;20406;-79
2023/08/11 12:08:32;;;;;;;97.60;1.97;;;35.50;16.80;;;;;;5053652;28;20690;-79
2023/08/11 12:10:59;;;;;;;97.27;2.07;;;36.00;15.40;;;;;;5053978;28;20413;-80
2023/08/11 12:13:25;;;;;;;96.90;1.77;;;36.50;15.00;;;;;;5054248;28;20499;-79
2023/08/11 12:15:51;;;;;;;96.97;1.80;;;36.50;14.90;;;;;;5054772;28;20791;-80
2023/08/11 12:18:16;;;;;;;97.07;2.00;;;35.60;14.50;;;;;;5053855;28;20171;-79
2023/08/11 12:20:42;;;;;;;96.77;1.80;;;33.50;15.40;;;;;;5053885;28;20463;-81
2023/08/11 12:23:07;;;;;;;97.07;1.97;;;33.10;15.80;;;;;;5053777;28;20196;-79
2023/08/11 12:25:33;;;;;;;97.17;1.93;;;32.40;17.70;;;;;;5052677;28;20178;-79